createdAt,value
2023-01-13T00:00:30.558Z,85.41
2023-01-13T00:03:18.480Z,85.45
2023-01-13T00:05:46.372Z,85.50
2023-01-13T00:08:14.231Z,85.53
2023-01-13T00:10:42.543Z,85.53
2023-01-13T00:13:10.718Z,85.57
2023-01-13T00:15:38.715Z,85.58
2023-01-13T00:18:06.964Z,85.58
2023-01-13T00:20:34.878Z,85.50
2023-01-13T00:23:04.415Z,85.39
2023-01-13T00:25:32.862Z,85.34
2023-01-13T00:28:00.860Z,85.32
2023-01-13T00:30:29.168Z,85.50
2023-01-13T00:32:57.166Z,85.77
2023-01-13T00:35:25.105Z,85.76
2023-01-13T00:37:52.943Z,85.71
2023-01-13T00:40:20.892Z,85.66
2023-01-13T00:43:07.657Z,85.54
2023-01-13T00:45:35.528Z,85.47
2023-01-13T00:48:03.509Z,85.39
2023-01-13T00:50:31.525Z,85.35
2023-01-13T00:53:00.757Z,85.27
2023-01-13T00:55:32.284Z,85.27
2023-01-13T00:58:03.484Z,85.32
2023-01-13T01:00:32.889Z,85.31
2023-01-13T01:03:01.153Z,85.38
2023-01-13T01:05:29.410Z,85.23
2023-01-13T01:07:57.427Z,85.25
2023-01-13T01:10:25.658Z,85.43
2023-01-13T01:12:53.627Z,85.59
2023-01-13T01:15:21.704Z,85.73
2023-01-13T01:17:49.985Z,85.60
2023-01-13T01:20:18.157Z,85.56
2023-01-13T01:22:46.163Z,85.61
2023-01-13T01:25:14.108Z,85.65
2023-01-13T01:27:41.943Z,85.60
2023-01-13T01:30:10.886Z,85.57
2023-01-13T01:32:38.818Z,85.60
2023-01-13T01:35:07.189Z,85.65
2023-01-13T01:37:35.065Z,85.72
2023-01-13T01:40:03.207Z,85.70
2023-01-13T01:42:50.014Z,85.76
2023-01-13T01:45:22.711Z,85.78
2023-01-13T01:47:57.480Z,85.76
2023-01-13T01:50:26.336Z,85.69
2023-01-13T01:53:00.051Z,85.69
2023-01-13T01:55:31.401Z,85.67
2023-01-13T01:58:09.457Z,85.67
2023-01-13T02:00:37.379Z,85.73
2023-01-13T02:03:07.457Z,85.83
2023-01-13T02:05:35.936Z,85.91
2023-01-13T02:08:04.279Z,85.99
2023-01-13T02:10:32.971Z,85.91
2023-01-13T02:13:04.921Z,85.96
2023-01-13T02:15:59.126Z,85.80
2023-01-13T02:19:01.536Z,85.77
2023-01-13T02:21:46.400Z,85.86
2023-01-13T02:24:55.134Z,85.91
2023-01-13T02:27:54.618Z,85.98
2023-01-13T02:31:00.213Z,86.08
2023-01-13T02:33:34.403Z,86.15
2023-01-13T02:36:05.232Z,86.17
2023-01-13T02:38:37.433Z,86.06
2023-01-13T02:41:38.062Z,86.04
2023-01-13T02:44:07.793Z,86.14
2023-01-13T02:46:46.801Z,86.17
2023-01-13T02:49:24.714Z,86.22
2023-01-13T02:51:55.037Z,86.18
2023-01-13T02:54:27.890Z,86.20
2023-01-13T02:56:58.237Z,86.21
2023-01-13T02:59:28.334Z,86.26
2023-01-13T03:01:58.321Z,86.31
2023-01-13T03:04:55.948Z,86.36
2023-01-13T03:07:44.337Z,86.33
2023-01-13T03:10:39.812Z,86.42
2023-01-13T03:13:46.216Z,86.41
2023-01-13T03:16:23.880Z,86.75
2023-01-13T03:19:16.143Z,86.88
2023-01-13T03:21:44.092Z,86.79
2023-01-13T03:24:17.988Z,86.95
2023-01-13T03:26:56.834Z,87.38
2023-01-13T03:29:37.172Z,87.34
2023-01-13T03:32:33.207Z,87.26
2023-01-13T03:35:25.953Z,87.06
2023-01-13T03:38:02.935Z,87.03
2023-01-13T03:40:36.252Z,86.89
2023-01-13T03:43:32.702Z,86.94
2023-01-13T03:46:09.679Z,86.79
2023-01-13T03:48:42.060Z,86.53
2023-01-13T03:51:15.010Z,86.27
2023-01-13T03:53:51.462Z,86.61
2023-01-13T03:56:28.186Z,86.64
2023-01-13T03:58:59.065Z,86.45
2023-01-13T04:01:35.272Z,86.39
2023-01-13T04:04:09.452Z,86.38
2023-01-13T04:06:38.359Z,86.46
2023-01-13T04:09:24.661Z,86.62
2023-01-13T04:12:04.112Z,86.71
2023-01-13T04:14:32.337Z,86.62
2023-01-13T04:17:00.341Z,86.64
2023-01-13T04:19:28.517Z,86.69
2023-01-13T04:21:56.503Z,86.65
2023-01-13T04:24:25.790Z,86.65
2023-01-13T04:26:53.932Z,86.63
2023-01-13T04:29:22.341Z,86.62
2023-01-13T04:31:50.531Z,86.50
2023-01-13T04:34:18.482Z,86.51
2023-01-13T04:36:46.534Z,86.55
2023-01-13T04:39:14.489Z,86.52
2023-01-13T04:41:57.964Z,86.54
2023-01-13T04:44:27.425Z,86.52
2023-01-13T04:46:55.437Z,86.51
2023-01-13T04:49:23.294Z,86.58
2023-01-13T04:51:51.187Z,86.44
2023-01-13T04:54:19.561Z,86.47
2023-01-13T04:56:47.515Z,86.45
2023-01-13T04:59:15.329Z,86.47
2023-01-13T05:01:43.319Z,86.55
2023-01-13T05:04:11.834Z,86.52
2023-01-13T05:06:39.920Z,86.49
2023-01-13T05:09:07.880Z,86.49
2023-01-13T05:11:54.271Z,86.53
2023-01-13T05:14:40.882Z,86.51
2023-01-13T05:17:12.400Z,86.55
2023-01-13T05:19:42.660Z,86.65
2023-01-13T05:22:30.527Z,86.73
2023-01-13T05:25:17.777Z,86.71
2023-01-13T05:27:45.822Z,86.59
2023-01-13T05:30:14.168Z,86.54
2023-01-13T05:32:42.137Z,86.53
2023-01-13T05:35:10.106Z,86.52
2023-01-13T05:37:38.151Z,86.68
2023-01-13T05:40:25.615Z,86.77
2023-01-13T05:43:20.939Z,86.71
2023-01-13T05:46:02.093Z,86.76
2023-01-13T05:48:37.555Z,86.84
2023-01-13T05:51:07.673Z,86.85
2023-01-13T05:53:35.700Z,86.89
2023-01-13T05:56:05.524Z,86.94
2023-01-13T05:58:34.205Z,86.94
2023-01-13T06:01:07.440Z,86.89
2023-01-13T06:03:36.525Z,86.99
2023-01-13T06:06:05.009Z,86.87
2023-01-13T06:08:33.281Z,86.81
2023-01-13T06:11:01.145Z,86.74
2023-01-13T06:13:29.324Z,86.75
2023-01-13T06:15:59.152Z,86.75
2023-01-13T06:18:27.736Z,86.73
2023-01-13T06:20:56.683Z,86.73
2023-01-13T06:23:24.865Z,86.76
2023-01-13T06:25:58.490Z,86.78
2023-01-13T06:28:26.764Z,86.73
2023-01-13T06:31:03.594Z,86.77
2023-01-13T06:33:41.477Z,86.83
2023-01-13T06:36:17.286Z,86.79
2023-01-13T06:38:48.790Z,86.79
2023-01-13T06:41:17.848Z,86.87
2023-01-13T06:43:46.685Z,86.75
2023-01-13T06:46:14.606Z,86.72
2023-01-13T06:48:42.509Z,86.74
2023-01-13T06:51:10.537Z,86.86
2023-01-13T06:53:38.619Z,86.82
2023-01-13T06:56:06.986Z,86.83
2023-01-13T06:58:34.819Z,86.83
2023-01-13T07:01:02.936Z,86.86
2023-01-13T07:03:31.034Z,86.81
2023-01-13T07:05:59.850Z,86.90
2023-01-13T07:08:28.173Z,86.92
2023-01-13T07:10:56.143Z,86.97
2023-01-13T07:13:42.999Z,86.92
2023-01-13T07:16:11.079Z,86.96
2023-01-13T07:18:39.607Z,86.97
2023-01-13T07:21:10.066Z,87.06
2023-01-13T07:23:40.457Z,87.19
2023-01-13T07:26:10.374Z,87.23
2023-01-13T07:28:39.474Z,87.22
2023-01-13T07:31:18.250Z,87.30
2023-01-13T07:33:46.871Z,87.75
2023-01-13T07:36:15.374Z,87.81
2023-01-13T07:38:44.746Z,87.52
2023-01-13T07:41:32.907Z,87.52
2023-01-13T07:44:05.234Z,87.39
2023-01-13T07:46:34.655Z,87.28
2023-01-13T07:49:03.157Z,87.15
2023-01-13T07:51:31.248Z,86.91
2023-01-13T07:53:59.301Z,86.61
2023-01-13T07:56:27.242Z,86.53
2023-01-13T07:58:55.246Z,86.16
2023-01-13T08:01:23.379Z,85.98
2023-01-13T08:03:51.394Z,86.01
2023-01-13T08:06:19.660Z,85.86
2023-01-13T08:08:47.738Z,85.75
2023-01-13T08:11:15.705Z,85.77
2023-01-13T08:13:43.668Z,85.84
2023-01-13T08:16:14.160Z,85.72
2023-01-13T08:18:43.339Z,85.63
2023-01-13T08:21:14.376Z,85.80
2023-01-13T08:23:44.281Z,85.77
2023-01-13T08:26:16.009Z,85.59
2023-01-13T08:28:45.211Z,85.55
2023-01-13T08:31:17.022Z,85.52
2023-01-13T08:33:45.199Z,85.45
2023-01-13T08:36:14.071Z,85.32
2023-01-13T08:38:42.420Z,85.18
2023-01-13T08:41:36.384Z,85.26
2023-01-13T08:44:06.408Z,85.02
2023-01-13T08:46:34.520Z,84.61
2023-01-13T08:49:02.959Z,84.18
2023-01-13T08:51:30.955Z,83.51
2023-01-13T08:53:58.982Z,83.36
2023-01-13T08:56:26.856Z,83.07
2023-01-13T08:58:58.237Z,82.76
2023-01-13T09:01:27.159Z,82.75
2023-01-13T09:03:55.623Z,82.32
2023-01-13T09:06:23.764Z,81.80
2023-01-13T09:08:52.266Z,81.48
2023-01-13T09:11:47.969Z,80.89
2023-01-13T09:14:21.466Z,80.41
2023-01-13T09:16:49.722Z,80.47
2023-01-13T09:19:17.587Z,80.12
2023-01-13T09:21:45.583Z,79.68
2023-01-13T09:24:13.755Z,79.29
2023-01-13T09:26:41.929Z,79.16
2023-01-13T09:29:09.939Z,78.83
2023-01-13T09:31:38.068Z,78.39
2023-01-13T09:34:26.630Z,77.81
2023-01-13T09:36:55.006Z,76.85
2023-01-13T09:39:22.895Z,76.21
2023-01-13T09:42:13.368Z,75.94
2023-01-13T09:44:58.597Z,75.11
2023-01-13T09:47:39.133Z,72.97
2023-01-13T09:50:34.126Z,70.90
2023-01-13T09:53:02.257Z,68.74
2023-01-13T09:55:36.579Z,68.26
2023-01-13T09:58:16.916Z,61.92
2023-01-13T10:00:57.633Z,62.83
2023-01-13T10:03:30.015Z,62.34
2023-01-13T10:06:35.147Z,60.52
2023-01-13T10:09:03.317Z,55.25
2023-01-13T10:11:59.140Z,51.85
2023-01-13T10:14:50.521Z,46.90
2023-01-13T10:17:18.431Z,39.74
2023-01-13T10:20:17.705Z,39.12
2023-01-13T10:22:49.870Z,39.21
2023-01-13T10:25:32.467Z,34.34
2023-01-13T10:28:11.110Z,34.80
2023-01-13T10:30:42.510Z,34.22
2023-01-13T10:33:13.519Z,33.30
2023-01-13T10:35:57.559Z,31.73
2023-01-13T10:38:34.650Z,34.73
2023-01-13T10:41:06.333Z,34.06
2023-01-13T10:43:34.227Z,33.56
2023-01-13T10:46:16.538Z,35.43
2023-01-13T10:48:58.966Z,35.52
2023-01-13T10:51:26.962Z,37.08
2023-01-13T10:53:59.128Z,37.08
2023-01-13T10:56:33.223Z,36.83
2023-01-13T10:59:10.145Z,36.14
2023-01-13T11:01:38.361Z,36.70
2023-01-13T11:04:27.711Z,38.99
2023-01-13T11:06:57.169Z,37.62
2023-01-13T11:09:27.164Z,38.76
2023-01-13T11:11:57.273Z,39.13
2023-01-13T11:14:43.248Z,40.18
2023-01-13T11:17:30.059Z,41.61
2023-01-13T11:20:17.635Z,42.15
2023-01-13T11:22:53.090Z,43.36
2023-01-13T11:25:32.727Z,44.45
2023-01-13T11:28:16.310Z,45.52
2023-01-13T11:30:55.055Z,46.30
2023-01-13T11:33:38.264Z,47.12
2023-01-13T11:36:11.302Z,47.61
2023-01-13T11:38:47.898Z,48.14
2023-01-13T11:41:42.058Z,48.92
2023-01-13T11:44:09.897Z,49.86
2023-01-13T11:46:39.059Z,50.20
2023-01-13T11:49:09.124Z,50.57
2023-01-13T11:51:50.024Z,50.86
2023-01-13T11:54:40.369Z,51.41
2023-01-13T11:57:29.057Z,51.65
2023-01-13T12:00:08.878Z,49.98
2023-01-13T12:02:58.170Z,48.83
2023-01-13T12:05:34.374Z,47.61
2023-01-13T12:08:20.945Z,45.93
2023-01-13T12:11:59.878Z,45.34
2023-01-13T12:14:55.940Z,46.18
2023-01-13T12:17:47.358Z,43.92
2023-01-13T12:20:18.217Z,41.73
2023-01-13T12:22:49.163Z,40.54
2023-01-13T12:25:37.081Z,39.94
2023-01-13T12:28:19.497Z,40.75
2023-01-13T12:30:56.657Z,39.76
2023-01-13T12:33:47.133Z,40.64
2023-01-13T12:36:32.969Z,38.55
2023-01-13T12:39:15.326Z,37.70
2023-01-13T12:42:16.445Z,38.38
2023-01-13T12:45:12.254Z,36.57
2023-01-13T12:47:45.532Z,35.28
2023-01-13T12:50:22.892Z,35.83
2023-01-13T12:53:20.655Z,35.93
2023-01-13T12:56:22.204Z,35.13
2023-01-13T12:58:50.443Z,34.95
2023-01-13T13:01:35.431Z,35.47
2023-01-13T13:04:41.103Z,35.16
2023-01-13T13:07:14.288Z,35.16
2023-01-13T13:10:02.839Z,34.56
2023-01-13T13:12:49.465Z,35.35
2023-01-13T13:15:27.656Z,35.98
2023-01-13T13:18:01.721Z,36.28
2023-01-13T13:20:58.004Z,36.13
2023-01-13T13:23:37.029Z,37.07
2023-01-13T13:26:45.640Z,36.95
2023-01-13T13:29:19.427Z,37.82
2023-01-13T13:31:50.277Z,38.51
2023-01-13T13:34:27.225Z,38.40
2023-01-13T13:37:20.093Z,38.70
2023-01-13T13:40:06.847Z,39.12
2023-01-13T13:43:02.460Z,39.13
2023-01-13T13:45:50.096Z,39.40
2023-01-13T13:48:28.280Z,40.45
2023-01-13T13:51:02.184Z,41.08
2023-01-13T13:53:35.005Z,42.06
2023-01-13T13:56:14.945Z,43.39
2023-01-13T13:58:43.736Z,45.00
2023-01-13T14:01:25.968Z,45.48
2023-01-13T14:04:17.350Z,46.85
2023-01-13T14:06:55.442Z,48.65
2023-01-13T14:09:25.301Z,50.33
2023-01-13T14:12:01.845Z,50.81
2023-01-13T14:14:29.979Z,51.91
2023-01-13T14:16:58.816Z,52.29
2023-01-13T14:19:26.895Z,54.72
2023-01-13T14:21:55.007Z,54.90
2023-01-13T14:24:24.926Z,54.97
2023-01-13T14:26:53.294Z,55.56
2023-01-13T14:29:23.734Z,56.06
2023-01-13T14:31:53.732Z,58.42
2023-01-13T14:34:28.785Z,60.24
2023-01-13T14:37:00.691Z,60.33
2023-01-13T14:39:40.900Z,59.51
2023-01-13T14:42:17.142Z,61.59
2023-01-13T14:44:47.686Z,60.81
2023-01-13T14:47:29.021Z,62.03
2023-01-13T14:50:06.294Z,62.93
2023-01-13T14:52:37.448Z,63.48
2023-01-13T14:55:10.084Z,63.38
2023-01-13T14:57:41.470Z,65.01
2023-01-13T15:00:15.186Z,63.49
2023-01-13T15:02:49.362Z,64.73
2023-01-13T15:05:17.680Z,66.97
2023-01-13T15:07:54.747Z,68.38
2023-01-13T15:10:29.615Z,70.65
2023-01-13T15:13:00.529Z,69.44
2023-01-13T15:15:39.668Z,70.64
2023-01-13T15:18:15.121Z,70.77
2023-01-13T15:20:43.409Z,69.88
2023-01-13T15:23:12.197Z,71.67
2023-01-13T15:25:42.318Z,71.96
2023-01-13T15:28:16.602Z,70.46
2023-01-13T15:30:45.425Z,71.44
2023-01-13T15:33:14.652Z,72.57
2023-01-13T15:35:45.024Z,71.31
2023-01-13T15:38:16.043Z,75.84
2023-01-13T15:40:44.789Z,74.31
2023-01-13T15:43:40.707Z,73.59
2023-01-13T15:46:38.102Z,72.69
2023-01-13T15:49:23.232Z,74.38
2023-01-13T15:51:51.167Z,74.11
2023-01-13T15:54:22.791Z,73.55
2023-01-13T15:56:51.550Z,74.08
2023-01-13T15:59:23.765Z,73.39
2023-01-13T16:01:51.808Z,75.37
2023-01-13T16:04:19.730Z,77.72
2023-01-13T16:06:47.926Z,76.49
2023-01-13T16:09:16.912Z,75.95
2023-01-13T16:11:44.939Z,75.82
2023-01-13T16:14:12.849Z,75.90
2023-01-13T16:16:41.124Z,75.81
2023-01-13T16:19:12.192Z,76.18
2023-01-13T16:21:40.492Z,76.44
2023-01-13T16:24:08.393Z,78.07
2023-01-13T16:26:37.954Z,78.03
2023-01-13T16:29:07.368Z,77.98
2023-01-13T16:31:36.209Z,77.40
2023-01-13T16:34:05.572Z,77.62
2023-01-13T16:36:37.306Z,77.32
2023-01-13T16:39:19.241Z,77.35
2023-01-13T16:41:47.125Z,77.76
2023-01-13T16:44:15.291Z,78.97
2023-01-13T16:46:45.416Z,80.11
2023-01-13T16:49:16.003Z,78.76
2023-01-13T16:51:43.893Z,79.69
2023-01-13T16:54:12.228Z,78.70
2023-01-13T16:56:40.168Z,78.91
2023-01-13T16:59:16.065Z,80.37
2023-01-13T17:01:45.073Z,80.82
2023-01-13T17:04:18.685Z,79.96
2023-01-13T17:07:15.741Z,80.29
2023-01-13T17:09:44.049Z,79.74
2023-01-13T17:12:12.044Z,79.81
2023-01-13T17:14:40.157Z,78.98
2023-01-13T17:17:24.955Z,79.21
2023-01-13T17:19:54.113Z,79.14
2023-01-13T17:22:22.878Z,79.45
2023-01-13T17:24:50.931Z,79.50
2023-01-13T17:27:21.246Z,79.94
2023-01-13T17:29:50.380Z,78.83
2023-01-13T17:32:20.725Z,78.36
2023-01-13T17:34:49.365Z,78.63
2023-01-13T17:37:17.803Z,78.64
2023-01-13T17:39:46.835Z,77.73
2023-01-13T17:42:16.189Z,76.88
2023-01-13T17:44:44.186Z,76.93
2023-01-13T17:47:12.453Z,76.83
2023-01-13T17:49:40.349Z,76.56
2023-01-13T17:52:08.923Z,76.37
2023-01-13T17:54:36.922Z,76.32
2023-01-13T17:57:05.958Z,75.91
2023-01-13T17:59:33.850Z,75.63
2023-01-13T18:02:01.993Z,75.18
2023-01-13T18:04:31.111Z,75.06
2023-01-13T18:06:59.080Z,75.56
2023-01-13T18:09:27.047Z,75.83
2023-01-13T18:11:55.323Z,75.70
2023-01-13T18:14:23.295Z,76.52
2023-01-13T18:16:51.926Z,78.69
2023-01-13T18:19:38.803Z,77.89
2023-01-13T18:22:25.504Z,77.35
2023-01-13T18:25:12.107Z,76.38
2023-01-13T18:27:41.927Z,76.55
2023-01-13T18:30:12.094Z,77.12
2023-01-13T18:32:40.211Z,76.97
2023-01-13T18:35:10.480Z,76.34
2023-01-13T18:37:40.610Z,76.77
2023-01-13T18:40:11.689Z,76.64
2023-01-13T18:42:53.690Z,77.55
2023-01-13T18:45:31.073Z,78.44
2023-01-13T18:48:02.102Z,78.40
2023-01-13T18:50:31.817Z,78.49
2023-01-13T18:53:00.257Z,78.21
2023-01-13T18:55:29.118Z,78.43
2023-01-13T18:57:58.968Z,78.48
2023-01-13T19:00:27.441Z,78.10
2023-01-13T19:05:35.789Z,78.30
2023-01-13T19:08:04.665Z,78.25
2023-01-13T19:10:33.016Z,77.69
2023-01-13T19:13:01.668Z,77.87
2023-01-13T19:15:30.503Z,78.08
2023-01-13T19:17:59.062Z,78.01
2023-01-13T19:20:27.130Z,79.22
2023-01-13T19:22:55.424Z,78.94
2023-01-13T19:25:23.426Z,79.31
2023-01-13T19:27:51.386Z,79.55
2023-01-13T19:30:19.594Z,80.31
2023-01-13T19:32:47.497Z,80.19
2023-01-13T19:35:18.203Z,79.96
2023-01-13T19:37:46.209Z,79.86
2023-01-13T19:40:14.369Z,79.89
2023-01-13T19:43:03.948Z,79.57
2023-01-13T19:45:33.815Z,79.45
2023-01-13T19:48:04.827Z,79.58
2023-01-13T19:50:37.477Z,79.59
2023-01-13T19:53:06.475Z,79.47
2023-01-13T19:55:34.656Z,79.53
2023-01-13T19:58:03.615Z,79.46
2023-01-13T20:00:31.816Z,80.25
2023-01-13T20:03:03.527Z,79.93
2023-01-13T20:05:31.647Z,80.15
2023-01-13T20:07:59.801Z,80.05
2023-01-13T20:10:30.533Z,79.63
2023-01-13T20:12:59.347Z,79.66
2023-01-13T20:15:27.758Z,79.38
2023-01-13T20:17:58.068Z,79.55
2023-01-13T20:20:27.443Z,79.51
2023-01-13T20:22:55.529Z,79.70
2023-01-13T20:25:23.857Z,79.79
2023-01-13T20:27:52.979Z,79.90
2023-01-13T20:30:21.079Z,80.15
2023-01-13T20:32:48.943Z,79.57
2023-01-13T20:35:17.202Z,79.85
2023-01-13T20:37:45.196Z,79.77
2023-01-13T20:40:15.781Z,79.88
2023-01-13T20:42:46.754Z,80.14
2023-01-13T20:45:20.055Z,80.05
2023-01-13T20:47:48.189Z,80.16
2023-01-13T20:50:17.529Z,80.70
2023-01-13T20:52:45.713Z,80.17
2023-01-13T20:55:14.254Z,80.18
2023-01-13T20:57:42.360Z,80.53
2023-01-13T21:00:13.958Z,80.79
2023-01-13T21:02:41.988Z,80.88
2023-01-13T21:05:10.740Z,80.93
2023-01-13T21:07:38.853Z,81.00
2023-01-13T21:10:07.234Z,81.08
2023-01-13T21:12:53.801Z,80.73
2023-01-13T21:15:22.739Z,80.84
2023-01-13T21:18:10.347Z,81.50
2023-01-13T21:20:39.243Z,82.21
2023-01-13T21:23:07.941Z,82.00
2023-01-13T21:25:39.477Z,82.32
2023-01-13T21:28:11.258Z,82.29
2023-01-13T21:30:40.210Z,82.45
2023-01-13T21:33:12.091Z,82.51
2023-01-13T21:35:40.379Z,82.49
2023-01-13T21:38:10.829Z,82.70
2023-01-13T21:40:38.871Z,83.06
2023-01-13T21:43:29.618Z,83.09
2023-01-13T21:46:16.271Z,83.29
2023-01-13T21:48:44.194Z,83.28
2023-01-13T21:51:12.114Z,82.70
2023-01-13T21:53:40.396Z,82.90
2023-01-13T21:56:08.212Z,82.78
2023-01-13T21:58:38.890Z,83.06
2023-01-13T22:01:07.154Z,83.70
2023-01-13T22:03:55.690Z,85.29
2023-01-13T22:06:24.578Z,85.95
2023-01-13T22:08:55.503Z,85.37
2023-01-13T22:11:23.390Z,84.62
2023-01-13T22:14:07.369Z,84.87
2023-01-13T22:16:42.099Z,84.85
2023-01-13T22:19:10.778Z,85.24
2023-01-13T22:21:39.528Z,84.87
2023-01-13T22:24:08.252Z,85.09
2023-01-13T22:26:37.304Z,85.04
2023-01-13T22:29:05.813Z,84.95
2023-01-13T22:31:34.157Z,84.79
2023-01-13T22:34:02.180Z,84.63
2023-01-13T22:36:30.148Z,84.58
2023-01-13T22:39:00.611Z,84.08
2023-01-13T22:41:28.850Z,83.08
2023-01-13T22:43:57.024Z,83.75
2023-01-13T22:46:24.997Z,84.31
2023-01-13T22:48:54.816Z,84.63
2023-01-13T22:51:23.079Z,84.42
2023-01-13T22:53:51.355Z,85.40
2023-01-13T22:56:21.685Z,85.28
2023-01-13T22:58:57.340Z,84.94
2023-01-13T23:01:27.816Z,84.78
2023-01-13T23:03:56.619Z,84.30
2023-01-13T23:06:26.884Z,84.32
2023-01-13T23:08:55.628Z,83.57
2023-01-13T23:11:26.897Z,83.67
2023-01-13T23:14:00.691Z,83.95
2023-01-13T23:16:30.540Z,84.21
2023-01-13T23:18:58.607Z,84.60
2023-01-13T23:21:29.938Z,84.95
2023-01-13T23:23:58.958Z,84.79
2023-01-13T23:26:28.119Z,84.06
2023-01-13T23:29:05.651Z,84.37
2023-01-13T23:31:34.630Z,84.32
2023-01-13T23:34:02.904Z,84.39
2023-01-13T23:36:31.589Z,84.27
2023-01-13T23:38:59.821Z,84.75
2023-01-13T23:41:28.416Z,84.40
2023-01-13T23:44:01.032Z,84.85
2023-01-13T23:46:31.451Z,84.82
2023-01-13T23:48:59.664Z,84.13
2023-01-13T23:51:30.109Z,83.74
2023-01-13T23:53:59.291Z,84.07
2023-01-13T23:56:30.158Z,84.54
2023-01-13T23:58:58.875Z,84.91
